Time;durP1;ratioP1;P1;durP2;ratioP2;P2;SDS_P1;SDS_P2;PMS_P1;PMS_P2;Temp;Humidity;BMP_temperature;BMP_pressure;BME280_temperature;BME280_humidity;BME280_pressure;Samples;Min_cycle;Max_cycle;Signal;HPM_P1;HPM_P2
2021/11/30 00:03:40;;;;;;;9.23;4.60;;;;;;;0.00;100.00;96802.28;8296270;28;20370;-79
2021/11/30 00:07:40;;;;;;;10.40;5.10;;;;;;;0.00;100.00;96806.81;8296530;28;20021;-76
2021/11/30 00:11:41;;;;;;;11.00;5.53;;;;;;;0.03;100.00;96808.94;8295889;28;20259;-78
2021/11/30 00:15:42;;;;;;;10.83;5.63;;;;;;;-0.06;100.00;96805.22;8296197;28;20365;-75
2021/11/30 00:19:43;;;;;;;10.67;4.57;;;;;;;-0.13;100.00;96815.31;8296129;28;20030;-75
2021/11/30 00:23:44;;;;;;;11.05;4.80;;;;;;;-0.13;100.00;96821.44;8295807;28;20053;-75
2021/11/30 00:27:44;;;;;;;11.60;4.20;;;;;;;-0.17;100.00;96822.25;8295876;28;20026;-74
2021/11/30 00:31:45;;;;;;;13.27;4.47;;;;;;;-0.25;100.00;96826.25;8297135;28;20384;-74
2021/11/30 00:35:45;;;;;;;10.50;4.30;;;;;;;-0.22;100.00;96838.22;8295764;28;20026;-75
2021/11/30 00:39:45;;;;;;;9.20;4.00;;;;;;;-0.23;100.00;96837.41;8297351;28;20380;-75
2021/11/30 00:43:47;;;;;;;10.63;4.47;;;;;;;-0.21;100.00;96835.28;8300306;28;20030;-75
2021/11/30 00:47:58;;;;;;;9.13;4.40;;;;;;;-0.22;100.00;96836.34;8301563;28;20298;-75
2021/11/30 00:51:59;;;;;;;8.48;4.10;;;;;;;-0.20;100.00;96838.72;8301507;28;20442;-75
2021/11/30 00:55:59;;;;;;;8.60;3.77;;;;;;;-0.23;100.00;96837.41;8301260;28;20317;-75
2021/11/30 01:00:00;;;;;;;9.23;3.87;;;;;;;-0.22;100.00;96844.34;8302687;28;20169;-75
2021/11/30 01:04:00;;;;;;;8.43;4.00;;;;;;;-0.21;100.00;96850.44;8302464;28;20032;-75
2021/11/30 01:08:01;;;;;;;7.80;3.90;;;;;;;-0.19;100.00;96850.97;8301043;28;20030;-75
2021/11/30 01:12:02;;;;;;;9.00;4.17;;;;;;;-0.21;100.00;96847.78;8302326;28;20084;-76
2021/11/30 01:16:03;;;;;;;7.93;4.10;;;;;;;-0.21;100.00;96843.25;8300668;28;20021;-75
2021/11/30 01:20:06;;;;;;;8.25;3.95;;;;;;;-0.21;100.00;96853.88;8302419;28;20288;-76
2021/11/30 01:24:08;;;;;;;8.52;3.83;;;;;;;-0.19;100.00;96867.72;8316894;28;20017;-75
2021/11/30 01:28:08;;;;;;;9.15;3.97;;;;;;;-0.19;100.00;96872.25;8301691;28;20037;-75
2021/11/30 01:32:09;;;;;;;7.70;4.00;;;;;;;-0.21;100.00;96882.34;8301538;28;20519;-75
2021/11/30 01:36:09;;;;;;;9.43;3.90;;;;;;;-0.17;100.00;96880.75;8300199;28;20026;-74
2021/11/30 01:40:14;;;;;;;9.50;4.07;;;;;;;-0.20;100.00;96879.41;8301334;28;20033;-76
2021/11/30 01:44:40;;;;;;;8.48;4.15;;;;;;;-0.21;100.00;96891.13;8301200;28;20464;-75
2021/11/30 01:53:01;;;;;;;8.23;3.45;;;;;;;-0.20;100.00;96884.75;8301210;28;20286;-75
2021/11/30 01:57:01;;;;;;;8.45;3.50;;;;;;;-0.19;100.00;96891.66;8300590;28;20034;-75
2021/11/30 02:01:02;;;;;;;8.20;3.87;;;;;;;-0.19;100.00;96885.53;8299050;28;20498;-75
2021/11/30 02:05:03;;;;;;;9.07;3.73;;;;;;;-0.23;100.00;96887.94;8299267;28;20018;-75
2021/11/30 02:09:03;;;;;;;6.72;3.53;;;;;;;-0.21;100.00;96891.13;8300450;28;20018;-75
2021/11/30 02:13:04;;;;;;;7.13;3.67;;;;;;;-0.21;100.00;96880.47;8298779;28;20037;-75
2021/11/30 02:17:08;;;;;;;9.70;4.07;;;;;;;-0.19;100.00;96891.66;8300202;28;20045;-75
2021/11/30 02:21:10;;;;;;;6.77;3.23;;;;;;;-0.25;100.00;96890.06;8298613;28;20034;-74
2021/11/30 02:25:10;;;;;;;7.38;3.30;;;;;;;-0.21;100.00;96885.00;8300335;28;20391;-74
2021/11/30 02:29:12;;;;;;;8.40;3.50;;;;;;;-0.21;100.00;96896.44;8298445;28;20060;-75
2021/11/30 02:33:12;;;;;;;6.60;3.40;;;;;;;-0.18;100.00;96898.59;8299693;28;20026;-74
2021/11/30 02:37:14;;;;;;;8.77;3.90;;;;;;;-0.19;100.00;96886.34;8298271;28;20018;-75
2021/11/30 02:41:15;;;;;;;6.33;3.00;;;;;;;-0.19;100.00;96896.97;8299397;28;20099;-75
2021/11/30 02:45:15;;;;;;;6.22;3.20;;;;;;;-0.25;100.00;96900.69;8299521;28;20313;-75
2021/11/30 02:49:18;;;;;;;6.67;2.80;;;;;;;-0.30;100.00;96894.59;8299290;28;20021;-75
2021/11/30 02:53:21;;;;;;;5.33;2.60;;;;;;;-0.36;100.00;96888.47;8299050;28;20065;-75
2021/11/30 02:57:23;;;;;;;6.60;2.92;;;;;;;-0.34;100.00;96888.19;8297979;28;20423;-75
2021/11/30 03:01:24;;;;;;;5.90;2.95;;;;;;;-0.37;100.00;96886.88;8297506;28;20030;-75
2021/11/30 03:05:24;;;;;;;5.47;2.43;;;;;;;-0.42;100.00;96902.78;8297025;28;20040;-74
2021/11/30 03:09:25;;;;;;;6.17;2.70;;;;;;;-0.42;100.00;96903.59;8298825;28;20029;-74
2021/11/30 03:13:25;;;;;;;5.33;2.70;;;;;;;-0.48;100.00;96909.97;8297053;28;20363;-75
2021/11/30 03:17:26;;;;;;;6.30;2.50;;;;;;;-0.48;100.00;96906.50;8297310;28;20076;-75
2021/11/30 03:21:26;;;;;;;5.28;2.75;;;;;;;-0.48;100.00;96896.66;8297144;28;20132;-75
2021/11/30 03:25:26;;;;;;;6.32;2.83;;;;;;;-0.49;100.00;96894.25;8297132;28;20117;-75
2021/11/30 03:29:27;;;;;;;5.70;2.50;;;;;;;-0.54;100.00;96892.41;8298269;28;20065;-75
2021/11/30 03:37:46;;;;;;;5.60;2.70;;;;;;;-0.49;100.00;96892.41;8298503;28;20028;-75
2021/11/30 03:41:48;;;;;;;4.93;2.70;;;;;;;-0.45;100.00;96890.03;8297807;28;20267;-75
2021/11/30 03:45:48;;;;;;;6.15;2.72;;;;;;;-0.42;100.00;96879.66;8296595;28;20286;-75
2021/11/30 03:49:48;;;;;;;5.17;2.50;;;;;;;-0.39;100.00;96881.00;8296582;28;20026;-75
2021/11/30 03:53:49;;;;;;;6.23;2.60;;;;;;;-0.35;100.00;96868.75;8296070;28;20026;-75
2021/11/30 03:57:49;;;;;;;6.23;2.50;;;;;;;-0.31;100.00;96867.19;8297218;28;20057;-75
2021/11/30 04:01:50;;;;;;;5.40;2.50;;;;;;;-0.27;100.00;96854.16;8295819;28;20033;-75
2021/11/30 04:05:50;;;;;;;6.75;2.72;;;;;;;-0.27;100.00;96857.59;8296415;28;20102;-75
2021/11/30 04:09:51;;;;;;;6.40;2.90;;;;;;;-0.26;100.00;96856.56;8297595;28;20089;-75
2021/11/30 04:13:51;;;;;;;5.27;2.60;;;;;;;-0.29;100.00;96849.13;8297379;28;20022;-75
2021/11/30 04:17:51;;;;;;;8.40;3.03;;;;;;;-0.28;100.00;96848.03;8301483;28;20045;-75
2021/11/30 04:21:52;;;;;;;4.87;2.53;;;;;;;-0.27;100.00;96854.94;8302586;28;20030;-78
2021/11/30 04:25:52;;;;;;;6.67;2.83;;;;;;;-0.27;100.00;96848.84;8302675;28;20018;-75
2021/11/30 04:29:52;;;;;;;6.57;2.90;;;;;;;-0.27;100.00;96835.53;8302679;28;20029;-76
2021/11/30 04:33:53;;;;;;;4.90;2.40;;;;;;;-0.35;100.00;96831.53;8302693;28;20120;-75
2021/11/30 04:37:53;;;;;;;5.30;2.53;;;;;;;-0.38;100.00;96832.09;8303459;28;20033;-75
2021/11/30 04:41:54;;;;;;;5.47;2.67;;;;;;;-0.40;100.00;96823.56;8303333;28;20443;-75
2021/11/30 04:45:57;;;;;;;5.33;2.67;;;;;;;-0.44;100.00;96822.53;8301940;28;20468;-76
2021/11/30 04:50:10;;;;;;;5.77;2.80;;;;;;;-0.46;100.00;96833.41;8302126;28;20018;-76
2021/11/30 04:54:11;;;;;;;7.35;2.75;;;;;;;-0.49;100.00;96833.94;8303092;28;20048;-76
2021/11/30 04:58:11;;;;;;;5.20;2.50;;;;;;;-0.53;100.00;96840.84;8301885;28;20038;-76
2021/11/30 05:02:13;;;;;;;5.57;2.60;;;;;;;-0.49;100.00;96831.28;8301050;28;20095;-76
2021/11/30 05:06:13;;;;;;;5.97;2.87;;;;;;;-0.48;100.00;96824.09;8301960;28;20130;-76
2021/11/30 05:10:17;;;;;;;5.85;3.05;;;;;;;-0.48;100.00;96808.94;8301988;28;20045;-76
2021/11/30 05:14:18;;;;;;;7.57;2.90;;;;;;;-0.51;100.00;96804.19;8301433;28;20034;-75
2021/11/30 05:18:18;;;;;;;7.07;3.30;;;;;;;-0.50;100.00;96803.09;8301100;28;20033;-76
2021/11/30 05:22:18;;;;;;;6.07;2.60;;;;;;;-0.50;100.00;96804.97;8302221;28;20022;-76
2021/11/30 05:26:19;;;;;;;7.37;2.90;;;;;;;-0.51;100.00;96806.03;8301091;28;20080;-76
2021/11/30 05:30:36;;;;;;;6.63;3.10;;;;;;;-0.54;100.00;96812.66;8300458;28;20037;-76
2021/11/30 05:34:36;;;;;;;6.97;3.40;;;;;;;-0.54;100.00;96806.56;8295296;28;20165;-77
2021/11/30 05:38:37;;;;;;;6.30;3.40;;;;;;;-0.58;100.00;96797.53;8268102;28;20276;-76
2021/11/30 05:42:54;;;;;;;8.45;3.65;;;;;;;-0.58;100.00;96797.53;8293291;28;20282;-76
2021/11/30 05:46:54;;;;;;;9.25;3.60;;;;;;;-0.64;100.00;96796.69;8265026;28;87494;-76
2021/11/30 05:50:54;;;;;;;6.70;3.70;;;;;;;-0.62;100.00;96775.19;8285630;28;20021;-76
2021/11/30 05:54:55;;;;;;;7.57;3.73;;;;;;;-0.63;100.00;96761.09;8292972;28;20113;-76
2021/11/30 05:58:57;;;;;;;9.10;4.77;;;;;;;-0.62;100.00;96761.88;8283392;28;20088;-77
2021/11/30 06:03:20;;;;;;;8.27;4.10;;;;;;;-0.62;100.00;96759.22;8301622;28;20118;-77
2021/11/30 06:07:20;;;;;;;7.47;3.50;;;;;;;-0.63;100.00;96752.31;8300390;28;20026;-78
2021/11/30 06:11:21;;;;;;;7.30;3.67;;;;;;;-0.61;100.00;96750.19;8300859;28;20080;-78
2021/11/30 06:15:22;;;;;;;8.43;3.70;;;;;;;-0.64;100.00;96746.19;8299665;28;20083;-78
2021/11/30 06:19:23;;;;;;;9.07;3.90;;;;;;;-0.62;100.00;96745.94;8299650;28;20041;-79
2021/11/30 06:23:23;;;;;;;9.13;4.03;;;;;;;-0.62;100.00;96743.28;8299681;28;20030;-79
2021/11/30 06:27:25;;;;;;;7.80;4.00;;;;;;;-0.69;100.00;96729.47;8299893;28;20026;-78
2021/11/30 06:31:25;;;;;;;7.85;4.03;;;;;;;-0.75;100.00;96720.69;8304746;28;20037;-77
2021/11/30 06:35:26;;;;;;;11.43;4.40;;;;;;;-0.74;100.00;96735.59;8301139;28;20120;-79
2021/11/30 06:39:26;;;;;;;8.73;4.30;;;;;;;-0.80;100.00;96720.72;8298767;28;20037;-78
2021/11/30 06:43:27;;;;;;;9.35;4.32;;;;;;;-0.80;100.00;96720.72;8296395;28;20050;-78
2021/11/30 06:47:28;;;;;;;12.80;4.70;;;;;;;-0.81;100.00;96711.94;8298013;28;20041;-77
2021/11/30 06:51:29;;;;;;;8.23;4.07;;;;;;;-0.83;100.00;96714.06;8298347;28;20053;-78
2021/11/30 06:55:29;;;;;;;8.68;4.28;;;;;;;-0.83;100.00;96705.28;8298520;28;20293;-78
2021/11/30 06:59:30;;;;;;;9.90;4.53;;;;;;;-0.83;100.00;96703.44;8298425;28;20060;-78
2021/11/30 07:03:31;;;;;;;9.18;4.30;;;;;;;-0.85;100.00;96700.22;8298182;28;20075;-79
2021/11/30 07:07:47;;;;;;;9.73;4.20;;;;;;;-0.82;100.00;96699.72;8298539;28;20026;-79
2021/11/30 07:15:57;;;;;;;8.60;3.80;;;;;;;-0.79;100.00;96679.78;8299686;28;20021;-79
2021/11/30 07:19:58;;;;;;;8.30;3.50;;;;;;;-0.80;100.00;96670.22;8299121;28;20410;-79
2021/11/30 07:23:59;;;;;;;7.60;3.53;;;;;;;-0.78;100.00;96662.00;8299000;28;20079;-79
2021/11/30 07:28:00;;;;;;;9.60;3.20;;;;;;;-0.71;100.00;96657.97;8297389;28;20252;-79
2021/11/30 07:32:01;;;;;;;6.33;2.97;;;;;;;-0.73;100.00;96657.47;8297348;28;20025;-78
2021/11/30 07:36:02;;;;;;;8.13;3.05;;;;;;;-0.69;100.00;96655.06;8297595;28;20408;-79
2021/11/30 07:40:04;;;;;;;6.60;3.00;;;;;;;-0.69;100.00;96644.44;8297447;28;20034;-79
2021/11/30 07:44:05;;;;;;;6.37;3.27;;;;;;;-0.68;100.00;96654.78;8297131;28;20152;-79
2021/11/30 07:48:05;;;;;;;6.13;2.60;;;;;;;-0.62;100.00;96648.41;8296958;28;20032;-78
2021/11/30 07:52:06;;;;;;;7.20;2.80;;;;;;;-0.60;100.00;96640.19;8296543;28;20022;-79
2021/11/30 07:56:06;;;;;;;5.50;2.88;;;;;;;-0.56;100.00;96631.38;8297103;28;20046;-79
2021/11/30 08:00:12;;;;;;;5.27;2.80;;;;;;;-0.52;100.00;96631.66;8297124;28;20498;-79
2021/11/30 08:04:12;;;;;;;5.93;2.70;;;;;;;-0.45;100.00;96629.53;8297304;28;20127;-79
2021/11/30 08:08:13;;;;;;;6.03;2.78;;;;;;;-0.47;100.00;96640.41;8296847;28;20259;-79
2021/11/30 08:12:13;;;;;;;4.93;2.50;;;;;;;-0.53;100.00;96622.88;8297011;28;20057;-78
2021/11/30 08:16:14;;;;;;;5.57;2.30;;;;;;;-0.50;100.00;96621.56;8296948;28;20018;-79
2021/11/30 08:20:14;;;;;;;6.50;2.20;;;;;;;-0.51;100.00;96612.00;8297163;28;20472;-79
2021/11/30 08:24:15;;;;;;;5.33;2.53;;;;;;;-0.47;100.00;96605.06;8296632;28;20483;-79
2021/11/30 08:28:15;;;;;;;4.77;2.30;;;;;;;-0.43;100.00;96592.84;8296781;28;20037;-79
2021/11/30 08:32:20;;;;;;;5.57;2.20;;;;;;;-0.40;100.00;96597.59;8296664;28;20491;-78
2021/11/30 08:36:20;;;;;;;5.40;2.60;;;;;;;-0.37;100.00;96591.75;8297777;28;20050;-78
2021/11/30 08:40:21;;;;;;;5.37;2.20;;;;;;;-0.34;100.00;96575.25;8297309;28;20096;-78
2021/11/30 08:44:21;;;;;;;5.63;2.40;;;;;;;-0.26;100.00;96597.81;8296692;28;20481;-78
2021/11/30 08:48:24;;;;;;;7.40;2.50;;;;;;;-0.20;100.00;96583.44;8297720;28;20092;-79
2021/11/30 08:52:26;;;;;;;6.87;2.50;;;;;;;-0.17;100.00;96581.03;8296106;28;20472;-79
2021/11/30 08:56:27;;;;;;;5.03;2.28;;;;;;;-0.11;100.00;96569.31;8296201;28;20022;-79
2021/11/30 09:00:28;;;;;;;5.73;2.50;;;;;;;-0.09;100.00;96561.06;8295053;28;20057;-78
2021/11/30 09:04:29;;;;;;;4.57;2.30;;;;;;;-0.02;100.00;96553.56;8298838;28;20026;-80
2021/11/30 09:08:29;;;;;;;6.33;2.37;;;;;;;0.00;100.00;96554.09;8278275;28;20042;-78
2021/11/30 09:12:29;;;;;;;5.50;2.50;;;;;;;0.11;100.00;96550.31;8301536;28;20026;-77
2021/11/30 09:16:31;;;;;;;4.27;2.40;;;;;;;0.15;100.00;96531.91;8297293;28;20021;-77
2021/11/30 09:20:32;;;;;;;3.97;1.80;;;;;;;0.18;100.00;96534.03;8291631;28;20030;-76
2021/11/30 09:24:32;;;;;;;3.80;2.00;;;;;;;0.22;100.00;96543.03;8277994;28;20036;-79
2021/11/30 09:28:33;;;;;;;3.90;2.20;;;;;;;0.17;100.00;96551.06;8295679;28;20033;-79
2021/11/30 09:32:33;;;;;;;4.20;2.07;;;;;;;0.26;100.00;96544.09;8294232;28;20463;-79
2021/11/30 09:36:36;;;;;;;4.50;2.00;;;;;;;0.22;100.00;96533.19;8298839;28;20061;-80
2021/11/30 09:40:38;;;;;;;4.55;2.10;;;;;;;0.35;100.00;96531.81;8298380;28;20096;-79
2021/11/30 09:44:40;;;;;;;4.60;2.10;;;;;;;0.37;100.00;96524.31;8300286;28;20029;-79
2021/11/30 09:49:09;;;;;;;5.40;2.30;;;;;;;0.43;100.00;96517.09;8297856;28;20041;-78
2021/11/30 09:53:10;;;;;;;3.87;1.67;;;;;;;0.42;100.00;96518.16;8297156;28;20022;-78
2021/11/30 09:57:11;;;;;;;4.43;2.00;;;;;;;0.50;100.00;96507.69;8298703;28;20026;-77
2021/11/30 10:01:13;;;;;;;3.40;1.70;;;;;;;0.48;100.00;96522.38;8293385;28;20049;-80
2021/11/30 10:05:14;;;;;;;4.18;1.75;;;;;;;0.47;100.00;96512.81;8297943;28;20018;-79
2021/11/30 10:09:21;;;;;;;3.07;1.30;;;;;;;0.63;100.00;96493.78;8297302;28;20022;-79
2021/11/30 10:13:26;;;;;;;2.63;1.45;;;;;;;0.64;100.00;96506.00;8292034;28;20057;-80
2021/11/30 10:17:34;;;;;;;3.67;1.60;;;;;;;0.64;100.00;96479.34;8295508;28;20060;-79
2021/11/30 10:21:35;;;;;;;2.67;1.37;;;;;;;0.72;100.00;96473.44;8296155;28;20021;-80
2021/11/30 10:25:42;;;;;;;3.40;1.40;;;;;;;0.66;100.00;96471.09;8289807;28;20466;-79
2021/11/30 10:29:42;;;;;;;3.47;1.50;;;;;;;0.68;100.00;96475.06;8295693;28;20041;-80
2021/11/30 10:33:54;;;;;;;2.63;1.10;;;;;;;0.70;100.00;96482.78;8291663;28;20021;-79
2021/11/30 10:37:58;;;;;;;1.77;1.50;;;;;;;0.70;100.00;96486.25;8295356;28;20064;-79
2021/11/30 10:42:22;;;;;;;2.67;1.48;;;;;;;0.54;100.00;96491.97;8295451;28;20267;-80
2021/11/30 10:46:26;;;;;;;2.08;1.33;;;;;;;0.54;100.00;96468.03;8297506;28;20511;-80
2021/11/30 10:50:28;;;;;;;1.65;1.20;;;;;;;0.45;100.00;96473.16;8297093;28;20040;-80
2021/11/30 10:54:39;;;;;;;1.47;1.10;;;;;;;0.45;100.00;96451.84;8296727;28;20057;-79
2021/11/30 10:58:45;;;;;;;2.83;1.30;;;;;;;0.52;100.00;96449.66;8294339;28;20040;-78
2021/11/30 11:07:27;;;;;;;2.07;1.10;;;;;;;0.64;100.00;96434.09;8294388;28;20450;-77
2021/11/30 11:11:38;;;;;;;1.70;1.00;;;;;;;0.66;100.00;96407.97;8289050;28;20037;-75
2021/11/30 11:15:40;;;;;;;1.70;1.20;;;;;;;0.67;100.00;96416.75;8292238;28;20034;-79
2021/11/30 11:19:47;;;;;;;2.50;1.30;;;;;;;0.76;100.00;96407.09;8294060;28;20026;-77
2021/11/30 11:24:04;;;;;;;1.75;1.13;;;;;;;0.80;100.00;96408.09;8290812;28;20745;-79
2021/11/30 11:28:12;;;;;;;2.70;1.20;;;;;;;0.89;100.00;96393.09;8291635;28;20041;-78
2021/11/30 11:32:12;;;;;;;2.03;1.25;;;;;;;0.91;100.00;96390.94;8290710;28;20042;-78
2021/11/30 11:36:14;;;;;;;1.43;0.73;;;;;;;1.02;100.00;96383.63;8299632;28;20032;-76
2021/11/30 11:40:14;;;;;;;1.57;1.00;;;;;;;1.04;100.00;96400.91;8290974;28;20028;-78
2021/11/30 11:44:14;;;;;;;1.40;1.00;;;;;;;0.99;100.00;96384.19;8294489;28;20025;-76
2021/11/30 11:48:33;;;;;;;2.03;1.17;;;;;;;1.15;100.00;96385.59;8294092;28;20026;-75
2021/11/30 11:52:37;;;;;;;1.55;1.17;;;;;;;1.14;100.00;96389.31;8293180;28;20072;-77
2021/11/30 11:56:38;;;;;;;2.38;1.13;;;;;;;1.06;100.00;96385.44;8291965;28;20022;-76
2021/11/30 12:00:45;;;;;;;3.60;1.10;;;;;;;1.15;100.00;96399.69;8289855;28;20045;-76
2021/11/30 12:05:02;;;;;;;2.05;1.20;;;;;;;1.29;100.00;96397.13;8292686;28;20420;-80
2021/11/30 12:09:29;;;;;;;2.30;0.80;;;;;;;1.24;100.00;96401.75;8290885;28;20099;-77
2021/11/30 12:13:31;;;;;;;1.05;0.93;;;;;;;1.17;100.00;96410.88;8286292;28;20045;-77
2021/11/30 12:17:39;;;;;;;1.20;0.95;;;;;;;1.19;100.00;96405.28;8294586;28;20398;-78
2021/11/30 12:21:40;;;;;;;1.83;1.20;;;;;;;1.16;100.00;96400.50;8291710;28;20045;-77
2021/11/30 12:25:40;;;;;;;1.23;0.90;;;;;;;1.17;100.00;96412.75;8292240;28;20049;-78
2021/11/30 12:29:57;;;;;;;3.08;1.20;;;;;;;1.11;100.00;96403.22;8308275;28;20127;-77
2021/11/30 12:34:38;;;;;;;1.85;0.90;;;;;;;1.10;100.00;96417.63;8287993;28;20029;-76
2021/11/30 12:38:56;;;;;;;1.23;0.80;;;;;;;0.98;100.00;96404.72;8293205;28;20029;-78
2021/11/30 12:43:12;;;;;;;1.27;0.90;;;;;;;1.07;100.00;96395.00;8309506;28;20491;-77
2021/11/30 12:47:25;;;;;;;1.58;0.98;;;;;;;1.03;100.00;96383.34;8299386;28;20061;-79
2021/11/30 12:51:34;;;;;;;1.77;1.07;;;;;;;1.20;100.00;96390.06;8297709;28;20072;-75
2021/11/30 12:56:01;;;;;;;1.85;1.10;;;;;;;1.09;100.00;96400.06;8297693;28;20279;-81
2021/11/30 13:00:11;;;;;;;2.05;1.20;;;;;;;0.98;100.00;96395.94;8296856;28;20133;-81
2021/11/30 13:04:45;;;;;;;1.50;1.10;;;;;;;0.96;100.00;96417.53;8298170;28;20070;-80
2021/11/30 13:09:08;;;;;;;3.07;0.90;;;;;;;0.94;100.00;96414.34;8297573;28;20083;-80
2021/11/30 13:13:26;;;;;;;1.38;0.90;;;;;;;0.92;100.00;96405.84;8299720;28;20022;-78
2021/11/30 13:17:55;;;;;;;2.20;0.95;;;;;;;0.97;100.00;96402.34;8300628;28;20034;-78
2021/11/30 13:22:19;;;;;;;1.13;1.03;;;;;;;0.97;100.00;96410.31;8299098;28;20363;-77
2021/11/30 13:26:23;;;;;;;2.28;0.90;;;;;;;0.92;100.00;96405.06;8294663;28;20059;-77
2021/11/30 13:30:28;;;;;;;2.78;1.00;;;;;;;0.93;100.00;96410.09;8299327;28;20038;-76
2021/11/30 13:34:28;;;;;;;1.83;1.10;;;;;;;1.00;100.00;96418.53;8297219;28;20025;-75
2021/11/30 13:38:48;;;;;;;3.35;1.13;;;;;;;0.96;100.00;96398.88;8298614;28;20278;-77
2021/11/30 13:43:00;;;;;;;2.40;1.02;;;;;;;0.97;100.00;96405.78;8298312;28;20026;-80
2021/11/30 13:47:08;;;;;;;2.03;1.15;;;;;;;1.04;100.00;96406.25;8300297;28;20025;-81
2021/11/30 13:51:16;;;;;;;1.80;0.95;;;;;;;0.93;100.00;96395.97;8295509;28;20033;-77
2021/11/30 13:55:17;;;;;;;2.47;1.20;;;;;;;0.93;100.00;96417.28;8301381;28;20110;-77
2021/11/30 13:59:21;;;;;;;2.43;1.20;;;;;;;0.89;100.00;96411.75;8298466;28;20037;-78
2021/11/30 14:03:39;;;;;;;1.70;1.10;;;;;;;0.88;100.00;96399.50;8298960;28;20022;-75
2021/11/30 14:07:40;;;;;;;2.33;1.23;;;;;;;0.91;100.00;96393.59;8312832;28;20022;-76
2021/11/30 14:12:08;;;;;;;1.87;1.00;;;;;;;0.88;100.00;96399.50;8296562;28;20032;-75
2021/11/30 14:16:25;;;;;;;2.22;1.23;;;;;;;0.92;100.00;96389.88;8308067;28;20052;-78
2021/11/30 14:20:39;;;;;;;2.05;1.10;;;;;;;0.91;100.00;96393.59;8315414;28;20033;-76
2021/11/30 14:24:58;;;;;;;2.30;1.00;;;;;;;0.97;100.00;96411.13;8300069;28;20072;-74
2021/11/30 14:29:10;;;;;;;2.17;1.00;;;;;;;0.95;100.00;96391.94;8296727;28;20407;-75
2021/11/30 14:33:26;;;;;;;2.47;1.00;;;;;;;1.00;100.00;96407.06;8294660;28;20127;-78
2021/11/30 14:37:36;;;;;;;1.87;1.00;;;;;;;0.98;100.00;96387.94;8304828;28;20029;-76
2021/11/30 14:41:46;;;;;;;2.03;0.95;;;;;;;0.98;100.00;96388.72;8298099;28;20105;-75
2021/11/30 14:45:50;;;;;;;1.80;0.98;;;;;;;1.00;100.00;96383.91;8316359;28;20068;-75
2021/11/30 14:50:03;;;;;;;1.70;1.10;;;;;;;1.03;100.00;96409.19;8293763;28;20025;-76
2021/11/30 14:54:07;;;;;;;4.25;1.40;;;;;;;1.02;100.00;96399.59;8304810;28;20369;-78
2021/11/30 14:58:21;;;;;;;2.03;0.95;;;;;;;1.15;100.00;96420.22;8298473;28;20086;-80
2021/11/30 15:02:26;;;;;;;1.67;1.10;;;;;;;1.14;100.00;96399.97;8291749;28;20088;-77
2021/11/30 15:06:33;;;;;;;1.27;0.90;;;;;;;1.10;100.00;96418.44;8291593;28;20018;-78
2021/11/30 15:10:33;;;;;;;1.42;1.08;;;;;;;1.16;100.00;96421.81;8313977;28;20037;-77
2021/11/30 15:14:39;;;;;;;2.33;1.13;;;;;;;1.12;100.00;96424.28;8295582;28;20026;-78
2021/11/30 15:19:05;;;;;;;1.35;0.85;;;;;;;1.23;100.00;96424.13;8294758;28;20117;-79
2021/11/30 15:23:20;;;;;;;1.50;1.10;;;;;;;1.16;100.00;96430.59;8304236;28;20033;-77
2021/11/30 15:27:31;;;;;;;1.73;0.82;;;;;;;1.14;100.00;96438.09;8313806;28;20025;-79
2021/11/30 15:31:40;;;;;;;1.60;1.00;;;;;;;1.16;100.00;96440.47;8295640;28;20113;-82
2021/11/30 15:35:42;;;;;;;1.60;1.20;;;;;;;1.13;100.00;96431.19;8296189;28;20029;-77
2021/11/30 15:39:42;;;;;;;1.65;0.90;;;;;;;1.12;100.00;96447.47;8293455;28;20271;-78
2021/11/30 15:43:43;;;;;;;1.50;1.00;;;;;;;1.13;100.00;96433.88;8285466;28;20025;-79
2021/11/30 15:47:44;;;;;;;2.43;1.07;;;;;;;1.12;100.00;96450.94;8288653;28;20018;-79
2021/11/30 15:51:48;;;;;;;2.20;0.90;;;;;;;1.13;100.00;96449.06;8286668;28;20061;-79
2021/11/30 16:00:15;;;;;;;1.10;0.90;;;;;;;1.13;100.00;96460.50;8291736;28;20040;-77
2021/11/30 16:04:16;;;;;;;1.00;0.90;;;;;;;1.15;100.00;96466.34;8279390;28;20034;-78
2021/11/30 16:08:16;;;;;;;2.53;0.80;;;;;;;1.16;100.00;96456.47;8293200;28;20032;-78
2021/11/30 16:12:17;;;;;;;2.23;0.70;;;;;;;1.17;100.00;96464.19;8315554;28;20034;-79
2021/11/30 16:16:35;;;;;;;2.13;0.90;;;;;;;1.12;100.00;96461.59;8304742;28;20049;-79
2021/11/30 16:20:35;;;;;;;1.90;1.10;;;;;;;1.10;100.00;96476.25;8294600;28;20116;-80
2021/11/30 16:24:36;;;;;;;1.87;1.00;;;;;;;1.08;100.00;96468.53;8321043;28;20033;-77
2021/11/30 16:28:38;;;;;;;1.55;0.90;;;;;;;1.11;100.00;96475.19;8303808;28;20034;-79
2021/11/30 16:32:44;;;;;;;2.53;1.38;;;;;;;1.10;100.00;96476.25;8299563;28;20129;-80
2021/11/30 16:36:46;;;;;;;5.07;1.33;;;;;;;1.13;100.00;96478.38;8321315;28;20426;-80
2021/11/30 16:40:49;;;;;;;4.10;1.65;;;;;;;1.15;100.00;96479.66;8284762;28;20140;-84
2021/11/30 16:44:54;;;;;;;2.47;1.30;;;;;;;1.16;100.00;96480.44;8303608;28;20483;-83
2021/11/30 16:48:55;;;;;;;1.80;1.20;;;;;;;1.14;100.00;96486.06;8300721;28;20437;-80
2021/11/30 16:52:55;;;;;;;2.60;1.35;;;;;;;1.18;100.00;96502.28;8302214;28;20420;-80
2021/11/30 16:56:56;;;;;;;2.87;1.40;;;;;;;1.13;100.00;96491.69;8303405;28;20415;-82
2021/11/30 17:00:57;;;;;;;2.65;1.33;;;;;;;1.11;100.00;96486.63;8301875;28;20033;-83
2021/11/30 17:05:14;;;;;;;2.37;1.40;;;;;;;1.10;100.00;96489.59;8292938;28;20030;-84
2021/11/30 17:09:16;;;;;;;2.30;1.30;;;;;;;1.09;100.00;96483.47;8295972;28;20451;-82
2021/11/30 17:13:32;;;;;;;5.20;1.33;;;;;;;1.11;100.00;96486.63;8302191;28;20033;-82
2021/11/30 17:17:32;;;;;;;1.92;1.42;;;;;;;1.10;100.00;96487.72;8303661;28;20804;-84
2021/11/30 17:21:33;;;;;;;2.63;1.20;;;;;;;1.13;100.00;96497.03;8294820;28;20513;-79
2021/11/30 17:25:34;;;;;;;2.10;1.17;;;;;;;1.17;100.00;96506.81;8296594;28;20037;-79
2021/11/30 17:29:34;;;;;;;3.10;1.30;;;;;;;1.21;100.00;96509.72;8300305;28;20088;-77
2021/11/30 17:33:34;;;;;;;2.00;1.10;;;;;;;1.21;100.00;96504.38;8299613;28;20490;-78
2021/11/30 17:37:35;;;;;;;2.37;1.37;;;;;;;1.25;100.00;96512.63;8296458;28;20018;-77
2021/11/30 17:41:35;;;;;;;2.70;1.40;;;;;;;1.22;100.00;96519.28;8299505;28;20216;-78
2021/11/30 17:45:46;;;;;;;3.03;1.53;;;;;;;1.27;100.00;96515.81;8316277;28;20431;-77
2021/11/30 17:49:46;;;;;;;2.45;0.98;;;;;;;1.25;100.00;96532.06;8316417;28;20037;-78
2021/11/30 17:53:47;;;;;;;1.70;0.90;;;;;;;1.25;100.00;96520.63;8306516;28;117712;-78
2021/11/30 17:57:55;;;;;;;3.03;0.83;;;;;;;1.29;100.00;96526.94;8317701;28;20101;-78
2021/11/30 18:01:57;;;;;;;1.98;0.95;;;;;;;1.33;100.00;96533.31;8309482;28;20048;-78
2021/11/30 18:05:58;;;;;;;2.40;1.30;;;;;;;1.31;100.00;96522.16;8317075;28;20063;-82
2021/11/30 18:09:59;;;;;;;2.80;1.00;;;;;;;1.28;100.00;96515.50;8320513;28;20283;-81
2021/11/30 18:13:59;;;;;;;2.60;1.40;;;;;;;1.31;100.00;96512.28;8325972;28;20026;-81
2021/11/30 18:18:05;;;;;;;1.27;0.90;;;;;;;1.33;100.00;96520.78;8317211;28;20036;-82
2021/11/30 18:22:06;;;;;;;1.90;1.17;;;;;;;1.33;100.00;96523.47;8313194;28;20040;-81
2021/11/30 18:26:07;;;;;;;4.10;1.70;;;;;;;1.33;100.00;96528.78;8316944;28;20054;-83
2021/11/30 18:30:11;;;;;;;3.13;1.30;;;;;;;1.38;100.00;96533.25;8322159;28;20033;-81
2021/11/30 18:34:11;;;;;;;2.22;1.00;;;;;;;1.40;100.00;96525.78;8300335;28;20030;-80
2021/11/30 18:38:12;;;;;;;2.20;1.10;;;;;;;1.43;100.00;96535.88;8304121;28;20021;-81
2021/11/30 18:42:16;;;;;;;2.65;1.20;;;;;;;1.44;100.00;96534.78;8330334;28;20090;-80
2021/11/30 18:46:48;;;;;;;1.60;1.10;;;;;;;1.46;100.00;96532.66;8317236;28;20018;-81
2021/11/30 18:50:48;;;;;;;2.45;1.30;;;;;;;1.51;100.00;96543.25;8315979;28;20050;-82
2021/11/30 18:54:49;;;;;;;1.80;1.00;;;;;;;1.52;100.00;96556.31;8299830;28;20037;-82
2021/11/30 18:58:49;;;;;;;3.70;1.60;;;;;;;1.55;100.00;96576.28;8309976;28;20099;-80
2021/11/30 19:02:50;;;;;;;2.17;1.13;;;;;;;1.64;100.00;96563.09;8316252;28;20026;-81
2021/11/30 19:06:50;;;;;;;2.30;0.90;;;;;;;1.64;100.00;96563.09;8300348;28;20545;-80
2021/11/30 19:11:20;;;;;;;3.25;1.60;;;;;;;1.67;100.00;96573.22;8316597;28;20033;-86
2021/11/30 19:15:20;;;;;;;3.28;1.27;;;;;;;1.68;100.00;96572.13;8308043;28;20022;-87
2021/11/30 19:19:38;;;;;;;2.10;1.00;;;;;;;1.70;100.00;96576.13;8320502;28;20140;-86
2021/11/30 19:28:26;;;;;;;;;;;;;;;1.74;100.00;96587.81;8361635;27;1950728;-86
2021/11/30 19:32:36;;;;;;;;;;;;;;;1.78;100.00;96580.81;8439428;28;19961;-82